Time;durP1;ratioP1;P1;durP2;ratioP2;P2;SDS_P1;SDS_P2;PMS_P1;PMS_P2;Temp;Humidity;BMP_temperature;BMP_pressure;BME280_temperature;BME280_humidity;BME280_pressure;Samples;Min_cycle;Max_cycle;Signal;HPM_P1;HPM_P2
2023/02/12 00:03:04;;;;;;;10.85;4.65;;;;;;;;;;5018313;27;20444;-71
2023/02/12 00:05:31;;;;;;;11.30;4.72;;;;;;;;;;4947629;28;20050;-70
2023/02/12 00:10:55;;;;;;;10.75;5.03;;;;;;;;;;4986272;27;20457;-69
2023/02/12 00:13:23;;;;;;;8.70;4.13;;;;;;;;;;5002953;28;20049;-72
2023/02/12 00:15:50;;;;;;;9.88;4.70;;;;;;;;;;4954317;28;20047;-77
2023/02/12 00:18:19;;;;;;;9.35;4.60;;;;;;;;;;4929711;28;20058;-77
2023/02/12 00:20:48;;;;;;;9.68;4.82;;;;;;;;;;4895004;28;20067;-76
2023/02/12 00:23:15;;;;;;;10.52;4.90;;;;;;;;;;4902023;28;20043;-71
2023/02/12 00:25:42;;;;;;;8.93;4.30;;;;;;;;;;4919257;28;20059;-77
2023/02/12 00:28:10;;;;;;;11.85;4.80;;;;;;;;;;4890568;28;20059;-71
2023/02/12 00:30:39;;;;;;;12.00;4.68;;;;;;;;;;4969415;28;20053;-76
2023/02/12 00:33:11;;;;;;;11.57;4.97;;;;;;;;;;5002509;28;20049;-74
2023/02/12 00:35:38;;;;;;;10.00;5.03;;;;;;;;;;4976249;28;20054;-77
2023/02/12 00:38:05;;;;;;;10.02;4.45;;;;;;;;;;4940877;28;20089;-78
2023/02/12 00:40:31;;;;;;;8.95;3.90;;;;;;;;;;4994105;28;20065;-74
2023/02/12 00:42:58;;;;;;;10.07;4.40;;;;;;;;;;4987553;28;20053;-71
2023/02/12 00:45:28;;;;;;;10.23;4.88;;;;;;;;;;4976692;28;20050;-73
2023/02/12 00:47:57;;;;;;;10.20;4.85;;;;;;;;;;4955450;28;20176;-71
2023/02/12 00:50:25;;;;;;;9.60;4.57;;;;;;;;;;4966294;28;20118;-76
2023/02/12 00:52:59;;;;;;;10.43;4.50;;;;;;;;;;4939796;28;20059;-74
2023/02/12 01:00:34;;;;;;;10.48;4.78;;;;;;;;;;5070789;27;20615;-76
2023/02/12 01:03:02;;;;;;;11.18;4.50;;;;;;;;;;4982504;28;20108;-75
2023/02/12 01:05:33;;;;;;;11.93;5.22;;;;;;;;;;4929245;28;20118;-73
2023/02/12 01:07:59;;;;;;;11.77;5.00;;;;;;;;;;4889214;28;20058;-77
2023/02/12 01:10:26;;;;;;;9.73;4.68;;;;;;;;;;4957509;28;20052;-73
2023/02/12 01:12:53;;;;;;;11.15;5.13;;;;;;;;;;4962214;28;20057;-72
2023/02/12 01:15:20;;;;;;;8.80;4.53;;;;;;;;;;4981003;28;20109;-77
2023/02/12 01:17:51;;;;;;;11.75;4.82;;;;;;;;;;4969216;28;20187;-74
2023/02/12 01:20:18;;;;;;;10.75;4.78;;;;;;;;;;4979794;28;20144;-70
2023/02/12 01:22:47;;;;;;;10.43;4.43;;;;;;;;;;4957925;28;20050;-74
2023/02/12 01:25:15;;;;;;;10.15;4.68;;;;;;;;;;4968523;28;20202;-74
2023/02/12 01:27:43;;;;;;;11.13;4.43;;;;;;;;;;4917540;28;20104;-74
2023/02/12 01:30:10;;;;;;;;;;;;;;;;;;4928464;28;20057;-73
2023/02/12 01:32:37;;;;;;;10.60;4.60;;;;;;;;;;4921824;28;19926;-70
2023/02/12 01:35:16;;;;;;;10.32;4.60;;;;;;;;;;4939577;28;20062;-74
2023/02/12 01:37:47;;;;;;;10.90;4.75;;;;;;;;;;4918872;28;20078;-75
2023/02/12 01:40:14;;;;;;;9.45;4.78;;;;;;;;;;4925516;28;20134;-71
2023/02/12 01:42:41;;;;;;;9.65;4.75;;;;;;;;;;5018396;28;20072;-71
2023/02/12 01:45:27;;;;;;;12.60;5.22;;;;;;;;;;4941046;28;20061;-73
2023/02/12 01:47:53;;;;;;;11.02;4.97;;;;;;;;;;4922040;28;20073;-73
2023/02/12 01:50:35;;;;;;;10.23;4.97;;;;;;;;;;4968427;28;20057;-74
2023/02/12 01:53:05;;;;;;;11.27;4.93;;;;;;;;;;4967323;28;20045;-76
2023/02/12 01:55:32;;;;;;;10.75;5.25;;;;;;;;;;4981931;28;20144;-68
2023/02/12 01:57:59;;;;;;;11.27;5.13;;;;;;;;;;4984116;28;20066;-72
2023/02/12 02:00:28;;;;;;;12.48;5.07;;;;;;;;;;4919775;28;20063;-72
2023/02/12 02:02:59;;;;;;;10.75;4.72;;;;;;;;;;4926593;28;20094;-71
2023/02/12 02:05:30;;;;;;;13.07;5.80;;;;;;;;;;4950328;28;20053;-74
2023/02/12 02:07:59;;;;;;;12.02;5.15;;;;;;;;;;4980666;28;20065;-70
2023/02/12 02:10:34;;;;;;;14.57;5.55;;;;;;;;;;4953239;28;20129;-71
2023/02/12 02:15:47;;;;;;;12.93;5.47;;;;;;;;;;4960742;28;20255;-74
2023/02/12 02:18:18;;;;;;;12.57;5.60;;;;;;;;;;4906081;28;20061;-68
2023/02/12 02:20:55;;;;;;;12.70;5.63;;;;;;;;;;4949052;28;20054;-75
2023/02/12 02:23:31;;;;;;;11.05;5.10;;;;;;;;;;4920242;28;20058;-73
2023/02/12 02:26:08;;;;;;;10.65;5.25;;;;;;;;;;4923130;28;20045;-77
2023/02/12 02:28:52;;;;;;;11.00;5.22;;;;;;;;;;4975896;28;20136;-72
2023/02/12 02:31:27;;;;;;;12.32;5.30;;;;;;;;;;4968061;28;20058;-69
2023/02/12 02:33:57;;;;;;;11.95;5.28;;;;;;;;;;5012945;28;20072;-74
2023/02/12 02:36:30;;;;;;;12.07;5.38;;;;;;;;;;4945425;28;20053;-75
2023/02/12 02:39:17;;;;;;;10.13;4.80;;;;;;;;;;4889310;29;20062;-74
2023/02/12 02:41:50;;;;;;;11.18;4.75;;;;;;;;;;4879713;29;20052;-77
2023/02/12 02:44:18;;;;;;;11.90;5.22;;;;;;;;;;4886921;29;20142;-72
2023/02/12 02:46:47;;;;;;;12.23;5.60;;;;;;;;;;4892034;28;20051;-75
2023/02/12 02:49:19;;;;;;;13.82;5.88;;;;;;;;;;4888224;28;20074;-70
2023/02/12 02:54:20;;;;;;;14.90;5.50;;;;;;;;;;4920308;28;20059;-74
2023/02/12 02:56:51;;;;;;;13.73;5.63;;;;;;;;;;4857644;28;20135;-74
2023/02/12 03:02:20;;;;;;;10.73;5.32;;;;;;;;;;4980340;27;20538;-74
2023/02/12 03:04:50;;;;;;;12.02;5.50;;;;;;;;;;4948095;28;20055;-73
2023/02/12 03:07:21;;;;;;;10.93;5.30;;;;;;;;;;4964737;28;20074;-77
2023/02/12 03:12:44;;;;;;;13.68;5.68;;;;;;;;;;4858715;28;20056;-73
2023/02/12 03:15:13;;;;;;;11.77;5.22;;;;;;;;;;4936603;28;20072;-71
2023/02/12 03:17:43;;;;;;;13.55;5.82;;;;;;;;;;4953831;28;20054;-75
2023/02/12 03:20:19;;;;;;;11.38;5.40;;;;;;;;;;4919548;28;20053;-72
2023/02/12 03:22:50;;;;;;;11.88;5.70;;;;;;;;;;4944435;28;20069;-71
2023/02/12 03:25:23;;;;;;;11.05;5.25;;;;;;;;;;4948549;28;20081;-69
2023/02/12 03:27:57;;;;;;;11.50;5.65;;;;;;;;;;4976471;28;20084;-76
2023/02/12 03:30:33;;;;;;;12.45;5.55;;;;;;;;;;4933261;28;20254;-76
2023/02/12 03:33:08;;;;;;;11.13;5.55;;;;;;;;;;4934986;28;20125;-76
2023/02/12 03:35:40;;;;;;;11.45;5.40;;;;;;;;;;4927290;28;20360;-74
2023/02/12 03:38:10;;;;;;;12.02;5.43;;;;;;;;;;4899826;28;20087;-76
2023/02/12 03:40:41;;;;;;;11.82;5.20;;;;;;;;;;4905005;28;20301;-74
2023/02/12 03:43:13;;;;;;;11.15;5.28;;;;;;;;;;4925426;28;20098;-76
2023/02/12 03:45:43;;;;;;;11.50;5.38;;;;;;;;;;4899412;28;20052;-73
2023/02/12 03:48:18;;;;;;;11.13;5.40;;;;;;;;;;4923161;28;20065;-70
2023/02/12 03:50:49;;;;;;;11.55;5.10;;;;;;;;;;4975988;28;20115;-74
2023/02/12 03:53:16;;;;;;;14.15;5.70;;;;;;;;;;4993819;28;20127;-75
2023/02/12 03:55:44;;;;;;;13.70;5.57;;;;;;;;;;4977292;28;20046;-78
2023/02/12 03:58:14;;;;;;;13.60;5.30;;;;;;;;;;4976246;28;20141;-72
2023/02/12 04:00:41;;;;;;;10.95;5.40;;;;;;;;;;4985232;28;20053;-73
2023/02/12 04:03:08;;;;;;;11.10;5.07;;;;;;;;;;4943857;28;20064;-77
2023/02/12 04:05:36;;;;;;;13.48;5.57;;;;;;;;;;4974779;28;20065;-76
2023/02/12 04:08:04;;;;;;;9.75;4.65;;;;;;;;;;4980734;28;20067;-71
2023/02/12 04:10:52;;;;;;;11.38;5.28;;;;;;;;;;4958215;28;20038;-71
2023/02/12 04:18:40;;;;;;;11.20;5.25;;;;;;;;;;5058151;27;20451;-74
2023/02/12 04:21:14;;;;;;;11.10;4.80;;;;;;;;;;4968529;28;20057;-69
2023/02/12 04:23:45;;;;;;;10.20;5.03;;;;;;;;;;4944460;28;20058;-70
2023/02/12 04:26:25;;;;;;;13.30;5.13;;;;;;;;;;4937314;28;20133;-67
2023/02/12 04:28:58;;;;;;;11.07;4.97;;;;;;;;;;4979424;28;20141;-74
2023/02/12 04:31:30;;;;;;;13.43;5.75;;;;;;;;;;4981387;28;20049;-74
2023/02/12 04:34:02;;;;;;;11.32;5.10;;;;;;;;;;4978688;28;20127;-75
2023/02/12 04:36:36;;;;;;;11.50;5.05;;;;;;;;;;4992450;28;20397;-72
2023/02/12 04:39:05;;;;;;;12.88;5.90;;;;;;;;;;5008289;28;20080;-70
2023/02/12 04:41:31;;;;;;;;;;;;;;;;;;4990557;28;20130;-69
2023/02/12 04:44:14;;;;;;;10.77;4.90;;;;;;;;;;4968163;28;20160;-75
2023/02/12 04:46:43;;;;;;;11.15;5.07;;;;;;;;;;4985716;28;20060;-76
2023/02/12 04:49:14;;;;;;;10.18;4.93;;;;;;;;;;4972483;28;20077;-76
2023/02/12 04:51:43;;;;;;;11.68;5.63;;;;;;;;;;4961108;28;20133;-70
2023/02/12 04:54:22;;;;;;;;;;;;;;;;;;;;;
2023/02/12 04:56:49;;;;;;;9.80;4.88;;;;;;;;;;4942789;28;20113;-72
2023/02/12 04:59:16;;;;;;;13.05;5.68;;;;;;;;;;4928798;28;20107;-72
2023/02/12 05:01:45;;;;;;;11.00;5.10;;;;;;;;;;4900621;28;20058;-71
2023/02/12 05:04:18;;;;;;;10.38;4.47;;;;;;;;;;4914695;28;20181;-70
2023/02/12 05:06:45;;;;;;;11.13;5.15;;;;;;;;;;4881914;29;20056;-74
2023/02/12 05:09:16;;;;;;;10.27;5.22;;;;;;;;;;4869671;29;20110;-75
2023/02/12 05:11:43;;;;;;;10.15;4.78;;;;;;;;;;4871017;29;20062;-72
2023/02/12 05:14:13;;;;;;;9.30;4.85;;;;;;;;;;4874694;29;20069;-70
2023/02/12 05:19:08;;;;;;;11.80;4.80;;;;;;;;;;4923051;28;20054;-72
2023/02/12 05:21:37;;;;;;;8.98;4.22;;;;;;;;;;4933252;28;20102;-69
2023/02/12 05:29:20;;;;;;;10.23;4.82;;;;;;;;;;5011166;27;20490;-71
2023/02/12 05:31:53;;;;;;;10.82;5.22;;;;;;;;;;4913894;28;20069;-76
2023/02/12 05:34:23;;;;;;;11.27;5.13;;;;;;;;;;4983399;28;20126;-77
2023/02/12 05:36:49;;;;;;;10.90;4.82;;;;;;;;;;4982763;28;20057;-71
2023/02/12 05:39:17;;;;;;;10.85;5.15;;;;;;;;;;4979041;28;20057;-75
2023/02/12 05:41:44;;;;;;;9.45;4.30;;;;;;;;;;5006683;28;20057;-69
2023/02/12 05:44:12;;;;;;;10.27;4.63;;;;;;;;;;4981915;28;20046;-72
2023/02/12 05:46:42;;;;;;;9.35;4.40;;;;;;;;;;4933157;28;20069;-72
2023/02/12 05:49:10;;;;;;;9.48;4.47;;;;;;;;;;4992942;28;20182;-74
2023/02/12 05:51:37;;;;;;;8.85;4.60;;;;;;;;;;4984412;28;20081;-77
2023/02/12 05:54:05;;;;;;;11.30;4.45;;;;;;;;;;4939175;28;20050;-75
2023/02/12 05:56:32;;;;;;;11.63;5.05;;;;;;;;;;4947759;28;20058;-75
2023/02/12 05:59:03;;;;;;;11.07;4.35;;;;;;;;;;4973610;28;20077;-74
2023/02/12 06:01:31;;;;;;;9.73;4.40;;;;;;;;;;5042144;28;20057;-73
2023/02/12 06:03:59;;;;;;;9.23;4.40;;;;;;;;;;5032470;28;20092;-72
2023/02/12 06:06:30;;;;;;;9.93;4.63;;;;;;;;;;4992170;28;20270;-75
2023/02/12 06:08:57;;;;;;;10.98;4.88;;;;;;;;;;5010097;28;20049;-76
2023/02/12 06:11:29;;;;;;;8.88;4.38;;;;;;;;;;4969007;28;20080;-72
2023/02/12 06:13:58;;;;;;;9.77;4.50;;;;;;;;;;4962512;28;20065;-72
2023/02/12 06:16:27;;;;;;;10.27;4.60;;;;;;;;;;4913841;28;20063;-73
2023/02/12 06:18:55;;;;;;;9.52;4.50;;;;;;;;;;4977198;28;20460;-70
2023/02/12 06:21:22;;;;;;;8.20;3.92;;;;;;;;;;5017713;28;20138;-72
2023/02/12 06:23:58;;;;;;;11.35;5.28;;;;;;;;;;4960382;28;20060;-75
2023/02/12 06:26:25;;;;;;;8.77;4.15;;;;;;;;;;4985684;28;20150;-70
2023/02/12 06:28:54;;;;;;;9.70;4.65;;;;;;;;;;4999653;28;20054;-70
2023/02/12 06:31:29;;;;;;;9.38;4.25;;;;;;;;;;4996318;28;20338;-71
2023/02/12 06:33:56;;;;;;;10.50;4.72;;;;;;;;;;5031607;28;20048;-76
2023/02/12 06:36:24;;;;;;;9.90;4.25;;;;;;;;;;4987326;28;20162;-72
2023/02/12 06:38:55;;;;;;;10.73;4.18;;;;;;;;;;4968795;28;20085;-73
2023/02/12 06:41:30;;;;;;;11.25;4.72;;;;;;;;;;4916605;28;20487;-74
2023/02/12 06:43:57;;;;;;;9.48;4.80;;;;;;;;;;4869397;29;20071;-75
2023/02/12 06:46:28;;;;;;;11.38;4.95;;;;;;;;;;4887711;28;20059;-75
2023/02/12 06:49:13;;;;;;;9.70;4.10;;;;;;;;;;4945006;28;20050;-75
2023/02/12 06:51:40;;;;;;;9.18;4.35;;;;;;;;;;4956323;28;20919;-72
2023/02/12 06:54:13;;;;;;;9.35;4.03;;;;;;;;;;4916415;28;20055;-68
2023/02/12 06:56:40;;;;;;;9.07;4.13;;;;;;;;;;4966873;28;20054;-72
2023/02/12 06:59:07;;;;;;;9.05;4.22;;;;;;;;;;4950402;28;20062;-74
2023/02/12 07:01:33;;;;;;;8.93;4.40;;;;;;;;;;4973633;28;20057;-75
2023/02/12 07:04:03;;;;;;;10.13;4.63;;;;;;;;;;4961745;28;20176;-70
2023/02/12 07:06:30;;;;;;;8.80;4.25;;;;;;;;;;4964187;28;20148;-67
2023/02/12 07:09:00;;;;;;;9.70;4.07;;;;;;;;;;4981407;28;20085;-71
2023/02/12 07:11:29;;;;;;;8.80;4.40;;;;;;;;;;5013932;28;20052;-67
2023/02/12 07:13:58;;;;;;;8.73;4.22;;;;;;;;;;4971668;28;20049;-71
2023/02/12 07:16:26;;;;;;;;;;;;;;;;;;4948870;28;20501;-71
2023/02/12 07:18:54;;;;;;;9.90;4.00;;;;;;;;;;4927740;28;19931;-71
2023/02/12 07:21:23;;;;;;;9.07;4.07;;;;;;;;;;4944003;28;20081;-75
2023/02/12 07:23:51;;;;;;;8.60;4.03;;;;;;;;;;4954103;28;20151;-72
2023/02/12 07:26:23;;;;;;;10.60;4.35;;;;;;;;;;4919791;28;20057;-72
2023/02/12 07:28:52;;;;;;;9.48;4.10;;;;;;;;;;5014071;28;20049;-79
2023/02/12 07:31:22;;;;;;;9.50;4.20;;;;;;;;;;5004039;28;20077;-74
2023/02/12 07:33:49;;;;;;;9.38;4.43;;;;;;;;;;4996158;28;20119;-74
2023/02/12 07:36:24;;;;;;;10.38;4.93;;;;;;;;;;4917566;28;20066;-73
2023/02/12 07:44:31;;;;;;;9.70;4.53;;;;;;;;;;4991075;27;20420;-73
2023/02/12 07:49:34;;;;;;;11.30;4.68;;;;;;;;;;4898667;28;20069;-69
2023/02/12 07:52:03;;;;;;;10.57;4.57;;;;;;;;;;4948966;28;20121;-74
2023/02/12 07:54:29;;;;;;;9.52;3.88;;;;;;;;;;4979011;28;20060;-74
2023/02/12 07:56:56;;;;;;;9.30;4.15;;;;;;;;;;5036251;28;20061;-68
2023/02/12 07:59:25;;;;;;;9.82;4.32;;;;;;;;;;5044423;28;20059;-71
2023/02/12 08:01:55;;;;;;;10.50;4.43;;;;;;;;;;5059746;28;20048;-77
2023/02/12 08:04:24;;;;;;;10.05;4.75;;;;;;;;;;4993657;28;20157;-74
2023/02/12 08:06:53;;;;;;;9.85;4.18;;;;;;;;;;5061706;28;20079;-74
2023/02/12 08:09:21;;;;;;;12.57;4.90;;;;;;;;;;5061329;28;20106;-71
2023/02/12 08:11:51;;;;;;;11.45;4.70;;;;;;;;;;5017275;28;20052;-72
2023/02/12 08:14:35;;;;;;;9.13;4.53;;;;;;;;;;4992797;28;20175;-71
2023/02/12 08:17:15;;;;;;;11.60;4.90;;;;;;;;;;4992707;28;20068;-76
2023/02/12 08:19:43;;;;;;;9.15;4.70;;;;;;;;;;5021576;28;20065;-71
2023/02/12 08:27:55;;;;;;;10.82;4.88;;;;;;;;;;4937816;27;20450;-69
2023/02/12 08:30:33;;;;;;;9.57;4.50;;;;;;;;;;4931915;28;20058;-73
2023/02/12 08:33:01;;;;;;;10.50;5.03;;;;;;;;;;4956139;28;20057;-71
2023/02/12 08:35:28;;;;;;;9.38;4.60;;;;;;;;;;4931010;28;20227;-69
2023/02/12 08:37:58;;;;;;;8.38;4.28;;;;;;;;;;4907637;28;20056;-67
2023/02/12 08:40:24;;;;;;;9.68;4.50;;;;;;;;;;4925142;28;20061;-71
2023/02/12 08:42:52;;;;;;;8.85;4.43;;;;;;;;;;4940170;28;20081;-73
2023/02/12 08:45:20;;;;;;;11.17;4.80;;;;;;;;;;4910759;28;20138;-73
2023/02/12 08:47:54;;;;;;;10.23;4.63;;;;;;;;;;4910123;28;20309;-66
2023/02/12 08:50:23;;;;;;;9.05;4.50;;;;;;;;;;4930169;28;20317;-66
2023/02/12 08:52:56;;;;;;;13.45;4.78;;;;;;;;;;4932740;28;20138;-73
2023/02/12 08:55:27;;;;;;;9.95;4.72;;;;;;;;;;4939525;28;20050;-71
2023/02/12 08:58:00;;;;;;;11.20;5.20;;;;;;;;;;4926670;28;20100;-65
2023/02/12 09:00:29;;;;;;;10.95;4.53;;;;;;;;;;4915548;28;20501;-67
2023/02/12 09:03:01;;;;;;;10.90;4.45;;;;;;;;;;4956401;28;20085;-68
2023/02/12 09:05:27;;;;;;;10.50;4.78;;;;;;;;;;4924322;28;20065;-74
2023/02/12 09:07:57;;;;;;;12.07;5.50;;;;;;;;;;4963841;28;20055;-70
2023/02/12 09:10:25;;;;;;;10.00;4.85;;;;;;;;;;4972301;28;20045;-75
2023/02/12 09:12:54;;;;;;;12.13;5.13;;;;;;;;;;4960005;28;20213;-74
2023/02/12 09:15:25;;;;;;;10.93;5.20;;;;;;;;;;4916183;28;20081;-68
2023/02/12 09:17:52;;;;;;;;;;;;;;;;;;4957746;28;20165;-73
2023/02/12 09:20:23;;;;;;;10.32;4.97;;;;;;;;;;4951029;28;19940;-68
2023/02/12 09:22:49;;;;;;;10.35;5.03;;;;;;;;;;4972077;28;20050;-70
2023/02/12 09:25:16;;;;;;;9.85;4.90;;;;;;;;;;4898777;28;20048;-73
2023/02/12 09:27:43;;;;;;;14.82;6.35;;;;;;;;;;4908591;28;20133;-72
2023/02/12 09:30:15;;;;;;;13.80;5.60;;;;;;;;;;4950582;28;20097;-68
2023/02/12 09:32:44;;;;;;;12.38;5.72;;;;;;;;;;4973026;28;20050;-69
2023/02/12 09:35:13;;;;;;;13.75;6.13;;;;;;;;;;4955823;28;20061;-70
2023/02/12 09:37:43;;;;;;;15.75;5.95;;;;;;;;;;4940101;28;20059;-67
2023/02/12 09:40:18;;;;;;;11.18;5.63;;;;;;;;;;4961887;28;20063;-69
2023/02/12 09:42:52;;;;;;;13.70;6.25;;;;;;;;;;4955547;28;20082;-72
2023/02/12 09:45:20;;;;;;;12.48;6.10;;;;;;;;;;4928304;28;20063;-78
2023/02/12 09:48:01;;;;;;;13.63;6.47;;;;;;;;;;4958675;28;20124;-71
2023/02/12 09:50:33;;;;;;;14.43;6.53;;;;;;;;;;4939817;28;20088;-76
2023/02/12 09:53:06;;;;;;;13.82;6.13;;;;;;;;;;4938122;28;20047;-72
2023/02/12 09:58:37;;;;;;;11.00;5.65;;;;;;;;;;4953418;27;20529;-75
2023/02/12 10:09:16;;;;;;;13.93;6.40;;;;;;;;;;5017100;27;20451;-70
2023/02/12 10:11:51;;;;;;;16.05;6.97;;;;;;;;;;5013910;28;20050;-70
2023/02/12 10:14:31;;;;;;;13.82;6.57;;;;;;;;;;5018405;28;20078;-73
2023/02/12 10:17:01;;;;;;;15.88;7.55;;;;;;;;;;5007832;28;20271;-72
2023/02/12 10:19:47;;;;;;;15.02;6.38;;;;;;;;;;5003065;28;20049;-67
2023/02/12 10:22:24;;;;;;;14.63;6.80;;;;;;;;;;4946460;28;20219;-80
2023/02/12 10:25:20;;;;;;;18.35;7.13;;;;;;;;;;4957818;28;20063;-71
2023/02/12 10:27:55;;;;;;;15.35;6.80;;;;;;;;;;4926866;28;20478;-76
2023/02/12 10:33:27;;;;;;;18.08;8.15;;;;;;;;;;4887634;28;20061;-72
2023/02/12 11:11:16;;;;;;;19.67;9.40;;;;;;;;;;5874280;24;20282;-71
2023/02/12 11:13:52;;;;;;;20.05;8.88;;;;;;;;;;5936119;23;20049;-68
2023/02/12 11:31:32;;;;;;;19.02;9.52;;;;;;;;;;5040967;27;20521;-74
2023/02/12 11:34:19;;;;;;;18.08;8.90;;;;;;;;;;4924599;28;20083;-69
2023/02/12 11:40:33;;;;;;;;;;;;;;;;;;;;;
2023/02/12 12:01:51;;;;;;;21.63;11.33;;;;;;;;;;5484439;22;15586738;-69
2023/02/12 12:38:18;;;;;;;16.33;7.53;;;;;;;;;;6099445;22;1493507;-78
2023/02/12 12:41:03;;;;;;;20.67;8.77;;;;;;;;;;6067951;23;20025;-74
2023/02/12 12:43:41;;;;;;;19.70;9.05;;;;;;;;;;6121298;23;20204;-76
2023/02/12 12:46:19;;;;;;;21.33;9.55;;;;;;;;;;6114731;23;20080;-78
2023/02/12 12:49:04;;;;;;;17.65;7.88;;;;;;;;;;6073594;23;20028;-74
2023/02/12 12:51:35;;;;;;;20.17;9.13;;;;;;;;;;6140126;23;20130;-77
2023/02/12 12:54:20;;;;;;;19.27;9.38;;;;;;;;;;6104293;23;20051;-77
2023/02/12 12:56:57;;;;;;;19.73;8.90;;;;;;;;;;6144826;23;20201;-75
2023/02/12 12:59:37;;;;;;;19.65;9.43;;;;;;;;;;6093861;23;20083;-67
2023/02/12 13:02:39;;;;;;;20.85;8.90;;;;;;;;;;6091245;23;20040;-74
2023/02/12 13:05:36;;;;;;;21.38;9.02;;;;;;;;;;6117689;23;20294;-76
2023/02/12 13:08:26;;;;;;;20.20;9.05;;;;;;;;;;6096708;23;20108;-79
2023/02/12 13:10:55;;;;;;;21.33;9.13;;;;;;;;;;5969385;23;20034;-74
2023/02/12 13:21:01;;;;;;;19.98;8.85;;;;;;;;;;5011680;27;20172;-74
2023/02/12 13:23:40;;;;;;;18.60;8.73;;;;;;;;;;4959297;28;20053;-75
2023/02/12 13:26:33;;;;;;;20.92;9.30;;;;;;;;;;4996823;28;20046;-79
2023/02/12 13:37:43;;;;;;;20.98;9.05;;;;;;;;;;4853252;28;20062;-78
2023/02/12 13:40:23;;;;;;;22.20;9.00;;;;;;;;;;4900869;28;20062;-77
2023/02/12 13:43:08;;;;;;;20.45;9.02;;;;;;;;;;4904974;28;20126;-71
2023/02/12 13:54:44;;;;;;;19.98;8.73;;;;;;;;;;4896053;28;20135;-76
2023/02/12 13:57:35;;;;;;;19.50;9.35;;;;;;;;;;4953678;28;20452;-74
2023/02/12 14:00:08;;;;;;;20.30;9.43;;;;;;;;;;4957908;28;20137;-72
2023/02/12 14:02:44;;;;;;;20.33;8.55;;;;;;;;;;4941681;28;20061;-77
2023/02/12 14:05:29;;;;;;;20.50;9.07;;;;;;;;;;4931885;28;20053;-72
2023/02/12 14:10:29;;;;;;;19.67;9.00;;;;;;;;;;4910952;28;20050;-70
2023/02/12 14:12:58;;;;;;;20.10;8.65;;;;;;;;;;4932188;28;20085;-77
2023/02/12 14:15:30;;;;;;;19.17;8.38;;;;;;;;;;4931450;28;20050;-76
2023/02/12 14:18:04;;;;;;;19.92;9.25;;;;;;;;;;4900125;28;20070;-72
2023/02/12 14:20:36;;;;;;;20.13;9.00;;;;;;;;;;4933814;28;20353;-74
2023/02/12 14:23:26;;;;;;;21.85;8.95;;;;;;;;;;4975183;28;20065;-75
2023/02/12 14:26:03;;;;;;;20.10;9.30;;;;;;;;;;4975332;28;20115;-80
2023/02/12 14:31:34;;;;;;;20.17;8.95;;;;;;;;;;4907096;28;20050;-76
2023/02/12 14:34:01;;;;;;;;;;;;;;;;;;4922682;28;20409;-75
2023/02/12 14:36:50;;;;;;;;;;;;;;;;;;;;;
2023/02/12 14:42:30;;;;;;;18.00;8.70;;;;;;;;;;4851279;29;20055;-74
2023/02/12 14:44:58;;;;;;;20.38;8.70;;;;;;;;;;4951834;28;20333;-73
2023/02/12 14:47:45;;;;;;;18.90;8.63;;;;;;;;;;4988939;28;20077;-72
2023/02/12 14:50:18;;;;;;;19.83;8.65;;;;;;;;;;4951913;28;20045;-70
2023/02/12 14:53:07;;;;;;;20.45;8.98;;;;;;;;;;4952395;28;20147;-77
2023/02/12 14:55:36;;;;;;;20.75;9.52;;;;;;;;;;4910258;28;20048;-77
2023/02/12 14:58:04;;;;;;;20.48;8.93;;;;;;;;;;4916566;28;20066;-75
2023/02/12 15:00:35;;;;;;;19.35;8.52;;;;;;;;;;4947671;28;20046;-75
2023/02/12 15:03:02;;;;;;;18.67;8.18;;;;;;;;;;4937109;28;20060;-71
2023/02/12 15:05:34;;;;;;;19.10;8.82;;;;;;;;;;4949502;28;20065;-77
2023/02/12 15:08:03;;;;;;;21.67;8.90;;;;;;;;;;4957183;28;20065;-75
2023/02/12 15:10:32;;;;;;;17.90;8.57;;;;;;;;;;4951865;28;20144;-78
2023/02/12 15:13:19;;;;;;;17.55;8.27;;;;;;;;;;4916975;28;20150;-73
2023/02/12 15:21:10;;;;;;;17.88;8.63;;;;;;;;;;4974520;27;20524;-72
2023/02/12 15:39:33;;;;;;;16.15;7.03;;;;;;;;;;4980753;27;20418;-70
2023/02/12 15:42:30;;;;;;;16.75;8.05;;;;;;;;;;4921218;28;20135;-77
2023/02/12 15:45:24;;;;;;;19.67;8.35;;;;;;;;;;4851747;29;20070;-75
2023/02/12 15:48:01;;;;;;;17.17;7.82;;;;;;;;;;4903730;28;20062;-71
2023/02/12 15:50:33;;;;;;;18.85;8.35;;;;;;;;;;4879389;28;20148;-74
2023/02/12 15:58:43;;;;;;;16.17;7.05;;;;;;;;;;4816060;29;20049;-81
2023/02/12 16:09:53;;;;;;;19.60;8.20;;;;;;;;;;4960220;27;20471;-71
2023/02/12 16:28:18;;;;;;;13.82;6.22;;;;;;;;;;6105537;22;1318013;-77
2023/02/12 16:31:07;;;;;;;16.77;7.70;;;;;;;;;;5947311;23;20093;-76
2023/02/12 16:39:03;;;;;;;15.90;7.38;;;;;;;;;;4960065;27;20467;-81
2023/02/12 16:41:57;;;;;;;17.75;7.95;;;;;;;;;;4912214;28;20405;-77
2023/02/12 16:44:30;;;;;;;16.85;8.00;;;;;;;;;;4915644;28;20128;-83
2023/02/12 16:52:28;;;;;;;17.75;8.05;;;;;;;;;;5004195;27;20700;-76
2023/02/12 17:13:06;;;;;;;13.88;5.90;;;;;;;;;;4982072;27;20542;-80
2023/02/12 17:23:30;;;;;;;16.83;7.32;;;;;;;;;;4983338;27;20629;-71
2023/02/12 17:26:06;;;;;;;16.42;7.50;;;;;;;;;;4976859;28;20055;-72
2023/02/12 17:28:44;;;;;;;15.85;7.35;;;;;;;;;;4898526;28;20056;-76
2023/02/12 17:45:16;;;;;;;16.52;6.13;;;;;;;;;;5025162;27;20974;-75
2023/02/12 17:47:48;;;;;;;15.48;7.15;;;;;;;;;;4973238;28;20062;-76
2023/02/12 17:55:09;;;;;;;17.15;6.97;;;;;;;;;;5025077;27;20444;-73
2023/02/12 17:57:39;;;;;;;15.18;6.97;;;;;;;;;;4932556;28;20069;-77
2023/02/12 18:02:59;;;;;;;16.73;6.43;;;;;;;;;;5020668;27;20404;-75
2023/02/12 18:05:26;;;;;;;16.35;6.30;;;;;;;;;;4987183;28;20047;-76
2023/02/12 18:07:57;;;;;;;15.93;6.60;;;;;;;;;;4922117;28;21243;-78
2023/02/12 18:13:22;;;;;;;15.60;6.65;;;;;;;;;;5018674;27;20136;-80
2023/02/12 18:15:58;;;;;;;17.27;7.70;;;;;;;;;;4929034;28;20050;-77
2023/02/12 18:18:33;;;;;;;17.00;6.90;;;;;;;;;;4842152;29;20068;-77
2023/02/12 18:21:05;;;;;;;19.67;7.40;;;;;;;;;;4824514;29;20080;-82
2023/02/12 18:23:35;;;;;;;15.18;6.50;;;;;;;;;;4851971;29;20143;-82
2023/02/12 18:26:16;;;;;;;15.82;6.82;;;;;;;;;;4885586;29;20072;-83
2023/02/12 18:28:49;;;;;;;14.45;6.13;;;;;;;;;;4830573;29;20148;-82
2023/02/12 18:31:21;;;;;;;18.00;7.50;;;;;;;;;;4814491;29;20068;-79
2023/02/12 18:33:50;;;;;;;14.90;6.55;;;;;;;;;;4853357;29;20206;-79
2023/02/12 18:47:26;;;;;;;15.82;6.60;;;;;;;;;;4961329;27;20524;-71
2023/02/12 18:50:12;;;;;;;19.65;7.38;;;;;;;;;;4897405;29;20062;-75
2023/02/12 18:52:52;;;;;;;18.25;7.47;;;;;;;;;;4850601;28;20058;-77
2023/02/12 18:55:19;;;;;;;13.93;6.80;;;;;;;;;;4907394;29;20051;-77
2023/02/12 18:57:45;;;;;;;19.77;7.25;;;;;;;;;;4915042;28;20158;-79
2023/02/12 19:00:13;;;;;;;16.05;7.25;;;;;;;;;;4934612;28;20129;-80
2023/02/12 19:02:41;;;;;;;15.75;6.78;;;;;;;;;;4901907;28;20172;-78
2023/02/12 19:05:16;;;;;;;16.42;7.13;;;;;;;;;;4947146;28;20070;-80
2023/02/12 19:07:50;;;;;;;17.83;7.57;;;;;;;;;;4929809;28;20090;-84
2023/02/12 19:15:49;;;;;;;16.75;7.30;;;;;;;;;;5006420;27;20453;-77
2023/02/12 19:18:20;;;;;;;16.73;7.78;;;;;;;;;;4924279;28;20051;-75
2023/02/12 19:24:23;;;;;;;17.02;7.45;;;;;;;;;;4980873;27;20477;-81
2023/02/12 19:26:51;;;;;;;17.10;7.80;;;;;;;;;;4964108;28;20072;-82
2023/02/12 19:29:26;;;;;;;16.73;7.68;;;;;;;;;;4961004;28;20053;-83
2023/02/12 19:31:53;;;;;;;14.05;6.90;;;;;;;;;;4916041;28;20067;-76
2023/02/12 19:34:22;;;;;;;16.58;7.38;;;;;;;;;;4939208;28;20118;-73
2023/02/12 19:36:51;;;;;;;19.60;7.18;;;;;;;;;;4929937;28;20118;-76
2023/02/12 19:39:20;;;;;;;14.05;7.18;;;;;;;;;;4952550;28;20055;-74
2023/02/12 19:47:04;;;;;;;17.13;7.68;;;;;;;;;;5047979;27;20424;-83
2023/02/12 19:49:37;;;;;;;15.27;7.00;;;;;;;;;;4954398;28;20073;-74
2023/02/12 19:52:11;;;;;;;17.58;7.43;;;;;;;;;;4896219;28;20086;-76
2023/02/12 19:54:39;;;;;;;14.38;6.85;;;;;;;;;;4918075;28;20058;-78
2023/02/12 19:57:11;;;;;;;14.80;6.70;;;;;;;;;;4906669;28;20066;-81
2023/02/12 19:59:39;;;;;;;17.10;6.53;;;;;;;;;;4901036;28;20048;-76
2023/02/12 20:05:09;;;;;;;16.50;7.28;;;;;;;;;;5007235;28;20521;-76
2023/02/12 20:07:41;;;;;;;20.25;7.93;;;;;;;;;;4969831;28;20045;-78
2023/02/12 20:10:19;;;;;;;16.30;7.65;;;;;;;;;;4971703;28;20124;-75
2023/02/12 20:18:25;;;;;;;17.25;7.63;;;;;;;;;;5026482;27;20452;-77
2023/02/12 20:20:56;;;;;;;14.45;6.18;;;;;;;;;;4917585;28;20066;-75
2023/02/12 20:26:32;;;;;;;16.10;6.88;;;;;;;;;;5054164;27;20302;-79
2023/02/12 20:32:52;;;;;;;16.58;7.20;;;;;;;;;;4989204;27;1403179;-79
2023/02/12 20:35:19;;;;;;;17.48;6.97;;;;;;;;;;4903787;28;20093;-79
2023/02/12 20:37:50;;;;;;;15.57;6.95;;;;;;;;;;4939416;28;20097;-75
2023/02/12 20:40:24;;;;;;;12.52;5.78;;;;;;;;;;4937018;28;20085;-75
2023/02/12 20:42:52;;;;;;;15.68;6.80;;;;;;;;;;4947888;28;20588;-71
2023/02/12 20:45:22;;;;;;;17.77;7.35;;;;;;;;;;4958203;28;20058;-75
2023/02/12 20:48:19;;;;;;;14.23;7.18;;;;;;;;;;4964050;28;20128;-75
2023/02/12 20:50:50;;;;;;;12.60;6.10;;;;;;;;;;4953002;28;20046;-81
2023/02/12 20:56:57;;;;;;;16.05;6.88;;;;;;;;;;5050187;27;20465;-73
2023/02/12 20:59:38;;;;;;;16.05;6.53;;;;;;;;;;4947121;28;20054;-72
2023/02/12 21:07:44;;;;;;;14.65;5.97;;;;;;;;;;4648046;27;10150149;-78
2023/02/12 21:10:14;;;;;;;15.68;6.97;;;;;;;;;;4951095;28;20060;-77